sensor_id;sensor_type;location;lat;lon;timestamp;P1;durP1;ratioP1;P2;durP2;ratioP2
1258;SDS011;619;51.472;6.628;2024-02-15T00:01:13;5.60;;;4.60;;
1258;SDS011;619;51.472;6.628;2024-02-15T00:03:41;3.50;;;3.20;;
1258;SDS011;619;51.472;6.628;2024-02-15T00:06:07;6.20;;;4.20;;
1258;SDS011;619;51.472;6.628;2024-02-15T00:08:32;6.80;;;3.70;;
1258;SDS011;619;51.472;6.628;2024-02-15T00:10:59;4.10;;;3.70;;
1258;SDS011;619;51.472;6.628;2024-02-15T00:13:25;3.90;;;3.60;;
1258;SDS011;619;51.472;6.628;2024-02-15T00:15:51;3.90;;;3.50;;
1258;SDS011;619;51.472;6.628;2024-02-15T00:18:17;6.60;;;6.00;;
1258;SDS011;619;51.472;6.628;2024-02-15T00:20:45;4.87;;;4.30;;
1258;SDS011;619;51.472;6.628;2024-02-15T00:23:10;9.63;;;4.57;;
1258;SDS011;619;51.472;6.628;2024-02-15T00:25:40;9.10;;;5.50;;
1258;SDS011;619;51.472;6.628;2024-02-15T00:28:08;5.07;;;4.67;;
1258;SDS011;619;51.472;6.628;2024-02-15T00:30:36;9.93;;;5.40;;
1258;SDS011;619;51.472;6.628;2024-02-15T00:33:02;7.43;;;4.50;;
1258;SDS011;619;51.472;6.628;2024-02-15T00:35:28;10.97;;;5.00;;
1258;SDS011;619;51.472;6.628;2024-02-15T00:37:54;5.70;;;4.60;;
1258;SDS011;619;51.472;6.628;2024-02-15T00:40:22;6.10;;;5.13;;
1258;SDS011;619;51.472;6.628;2024-02-15T00:42:50;7.83;;;4.50;;
1258;SDS011;619;51.472;6.628;2024-02-15T00:45:18;4.97;;;4.47;;
1258;SDS011;619;51.472;6.628;2024-02-15T00:47:45;7.17;;;3.87;;
1258;SDS011;619;51.472;6.628;2024-02-15T00:50:14;9.10;;;4.50;;
1258;SDS011;619;51.472;6.628;2024-02-15T00:52:41;6.97;;;4.50;;
1258;SDS011;619;51.472;6.628;2024-02-15T00:55:11;4.30;;;3.57;;
1258;SDS011;619;51.472;6.628;2024-02-15T00:57:37;7.60;;;4.70;;
1258;SDS011;619;51.472;6.628;2024-02-15T01:00:06;5.30;;;4.80;;
1258;SDS011;619;51.472;6.628;2024-02-15T01:02:34;5.10;;;4.00;;
1258;SDS011;619;51.472;6.628;2024-02-15T01:05:02;5.90;;;3.60;;
1258;SDS011;619;51.472;6.628;2024-02-15T01:07:28;4.50;;;4.10;;
1258;SDS011;619;51.472;6.628;2024-02-15T01:09:56;5.47;;;4.13;;
1258;SDS011;619;51.472;6.628;2024-02-15T01:12:24;4.80;;;3.97;;
1258;SDS011;619;51.472;6.628;2024-02-15T01:14:49;4.77;;;4.10;;
1258;SDS011;619;51.472;6.628;2024-02-15T01:17:15;6.97;;;4.00;;
1258;SDS011;619;51.472;6.628;2024-02-15T01:19:45;9.20;;;4.50;;
1258;SDS011;619;51.472;6.628;2024-02-15T01:22:11;6.60;;;4.70;;
1258;SDS011;619;51.472;6.628;2024-02-15T01:24:40;6.30;;;4.53;;
1258;SDS011;619;51.472;6.628;2024-02-15T01:27:05;6.00;;;4.23;;
1258;SDS011;619;51.472;6.628;2024-02-15T01:29:32;5.63;;;4.20;;
1258;SDS011;619;51.472;6.628;2024-02-15T01:31:57;5.43;;;4.60;;
1258;SDS011;619;51.472;6.628;2024-02-15T01:34:26;7.70;;;4.50;;
1258;SDS011;619;51.472;6.628;2024-02-15T01:36:52;7.80;;;4.47;;
1258;SDS011;619;51.472;6.628;2024-02-15T01:39:18;5.43;;;4.60;;
1258;SDS011;619;51.472;6.628;2024-02-15T01:41:47;4.77;;;4.20;;
1258;SDS011;619;51.472;6.628;2024-02-15T01:44:16;4.77;;;4.27;;
1258;SDS011;619;51.472;6.628;2024-02-15T01:46:45;6.23;;;4.43;;
1258;SDS011;619;51.472;6.628;2024-02-15T01:49:12;7.60;;;3.90;;
1258;SDS011;619;51.472;6.628;2024-02-15T01:51:38;4.10;;;3.77;;
1258;SDS011;619;51.472;6.628;2024-02-15T01:54:08;4.40;;;4.00;;
1258;SDS011;619;51.472;6.628;2024-02-15T01:56:38;6.60;;;4.83;;
1258;SDS011;619;51.472;6.628;2024-02-15T01:59:04;5.60;;;3.80;;
1258;SDS011;619;51.472;6.628;2024-02-15T02:01:30;4.10;;;3.63;;
1258;SDS011;619;51.472;6.628;2024-02-15T02:04:01;4.60;;;3.60;;
1258;SDS011;619;51.472;6.628;2024-02-15T02:06:28;4.73;;;3.50;;
1258;SDS011;619;51.472;6.628;2024-02-15T02:08:54;7.67;;;4.00;;
1258;SDS011;619;51.472;6.628;2024-02-15T02:11:23;5.77;;;3.60;;
1258;SDS011;619;51.472;6.628;2024-02-15T02:13:52;3.47;;;3.03;;
1258;SDS011;619;51.472;6.628;2024-02-15T02:16:25;3.43;;;3.10;;
1258;SDS011;619;51.472;6.628;2024-02-15T02:18:52;6.00;;;3.80;;
1258;SDS011;619;51.472;6.628;2024-02-15T02:21:22;4.77;;;3.20;;
1258;SDS011;619;51.472;6.628;2024-02-15T02:23:52;3.10;;;2.80;;
1258;SDS011;619;51.472;6.628;2024-02-15T02:26:20;4.80;;;3.37;;
1258;SDS011;619;51.472;6.628;2024-02-15T02:28:51;3.53;;;3.10;;
1258;SDS011;619;51.472;6.628;2024-02-15T02:31:21;4.20;;;3.77;;
1258;SDS011;619;51.472;6.628;2024-02-15T02:33:51;3.77;;;3.40;;
1258;SDS011;619;51.472;6.628;2024-02-15T02:36:18;4.67;;;3.73;;
1258;SDS011;619;51.472;6.628;2024-02-15T02:38:44;6.17;;;3.27;;
1258;SDS011;619;51.472;6.628;2024-02-15T02:41:19;3.57;;;3.27;;
1258;SDS011;619;51.472;6.628;2024-02-15T02:43:44;5.10;;;3.20;;
1258;SDS011;619;51.472;6.628;2024-02-15T02:46:10;4.53;;;3.07;;
1258;SDS011;619;51.472;6.628;2024-02-15T02:48:39;5.93;;;2.70;;
1258;SDS011;619;51.472;6.628;2024-02-15T02:51:06;3.70;;;2.40;;
1258;SDS011;619;51.472;6.628;2024-02-15T02:53:32;5.00;;;3.27;;
1258;SDS011;619;51.472;6.628;2024-02-15T02:56:01;4.00;;;2.63;;
1258;SDS011;619;51.472;6.628;2024-02-15T02:58:31;4.13;;;3.00;;
1258;SDS011;619;51.472;6.628;2024-02-15T03:00:59;5.53;;;2.60;;
1258;SDS011;619;51.472;6.628;2024-02-15T03:03:25;3.33;;;2.80;;
1258;SDS011;619;51.472;6.628;2024-02-15T03:05:51;3.87;;;2.63;;
1258;SDS011;619;51.472;6.628;2024-02-15T03:08:17;2.50;;;2.30;;
1258;SDS011;619;51.472;6.628;2024-02-15T03:10:45;3.40;;;2.23;;
1258;SDS011;619;51.472;6.628;2024-02-15T03:13:12;8.53;;;3.90;;
1258;SDS011;619;51.472;6.628;2024-02-15T03:15:44;3.70;;;2.80;;
1258;SDS011;619;51.472;6.628;2024-02-15T03:18:13;3.60;;;2.53;;
1258;SDS011;619;51.472;6.628;2024-02-15T03:20:42;3.37;;;2.20;;
1258;SDS011;619;51.472;6.628;2024-02-15T03:23:10;3.50;;;2.43;;
1258;SDS011;619;51.472;6.628;2024-02-15T03:25:36;2.93;;;2.50;;
1258;SDS011;619;51.472;6.628;2024-02-15T03:28:02;3.13;;;2.50;;
1258;SDS011;619;51.472;6.628;2024-02-15T03:30:29;3.63;;;2.60;;
1258;SDS011;619;51.472;6.628;2024-02-15T03:32:58;2.70;;;2.17;;
1258;SDS011;619;51.472;6.628;2024-02-15T03:35:28;4.40;;;2.60;;
1258;SDS011;619;51.472;6.628;2024-02-15T03:37:56;2.60;;;2.40;;
1258;SDS011;619;51.472;6.628;2024-02-15T03:40:28;5.00;;;2.33;;
1258;SDS011;619;51.472;6.628;2024-02-15T03:42:55;3.00;;;2.47;;
1258;SDS011;619;51.472;6.628;2024-02-15T03:45:26;5.17;;;2.67;;
1258;SDS011;619;51.472;6.628;2024-02-15T03:47:52;6.77;;;3.43;;
1258;SDS011;619;51.472;6.628;2024-02-15T03:50:17;5.70;;;3.10;;
1258;SDS011;619;51.472;6.628;2024-02-15T03:52:48;5.43;;;2.57;;
1258;SDS011;619;51.472;6.628;2024-02-15T03:55:16;5.30;;;2.37;;
1258;SDS011;619;51.472;6.628;2024-02-15T03:57:42;5.10;;;2.50;;
1258;SDS011;619;51.472;6.628;2024-02-15T04:00:11;4.90;;;2.30;;
1258;SDS011;619;51.472;6.628;2024-02-15T04:02:40;3.13;;;2.40;;
1258;SDS011;619;51.472;6.628;2024-02-15T04:05:06;2.97;;;2.00;;
1258;SDS011;619;51.472;6.628;2024-02-15T04:07:34;4.00;;;3.53;;
1258;SDS011;619;51.472;6.628;2024-02-15T04:10:02;3.73;;;2.93;;
1258;SDS011;619;51.472;6.628;2024-02-15T04:12:28;3.97;;;2.83;;
1258;SDS011;619;51.472;6.628;2024-02-15T04:14:56;3.00;;;1.80;;
1258;SDS011;619;51.472;6.628;2024-02-15T04:17:32;2.60;;;2.20;;
1258;SDS011;619;51.472;6.628;2024-02-15T04:20:00;4.90;;;2.47;;
1258;SDS011;619;51.472;6.628;2024-02-15T04:22:26;5.00;;;2.97;;
1258;SDS011;619;51.472;6.628;2024-02-15T04:24:51;4.87;;;3.77;;
1258;SDS011;619;51.472;6.628;2024-02-15T04:27:20;9.67;;;2.93;;
1258;SDS011;619;51.472;6.628;2024-02-15T04:29:46;3.77;;;3.10;;
1258;SDS011;619;51.472;6.628;2024-02-15T04:32:11;4.80;;;3.70;;
1258;SDS011;619;51.472;6.628;2024-02-15T04:34:38;3.80;;;3.33;;
1258;SDS011;619;51.472;6.628;2024-02-15T04:37:07;6.60;;;3.83;;
1258;SDS011;619;51.472;6.628;2024-02-15T04:39:38;6.00;;;4.50;;
1258;SDS011;619;51.472;6.628;2024-02-15T04:42:03;10.83;;;5.00;;
1258;SDS011;619;51.472;6.628;2024-02-15T04:44:36;6.63;;;4.50;;
1258;SDS011;619;51.472;6.628;2024-02-15T04:47:07;5.63;;;4.87;;
1258;SDS011;619;51.472;6.628;2024-02-15T04:49:33;5.83;;;4.40;;
1258;SDS011;619;51.472;6.628;2024-02-15T04:51:59;8.90;;;4.00;;
1258;SDS011;619;51.472;6.628;2024-02-15T04:54:28;5.80;;;4.13;;
1258;SDS011;619;51.472;6.628;2024-02-15T04:56:57;9.10;;;6.10;;
1258;SDS011;619;51.472;6.628;2024-02-15T04:59:22;6.93;;;4.37;;
1258;SDS011;619;51.472;6.628;2024-02-15T05:01:51;8.37;;;5.30;;
1258;SDS011;619;51.472;6.628;2024-02-15T05:04:21;8.87;;;5.57;;
1258;SDS011;619;51.472;6.628;2024-02-15T05:06:47;7.43;;;4.77;;
1258;SDS011;619;51.472;6.628;2024-02-15T05:09:18;6.60;;;4.87;;
1258;SDS011;619;51.472;6.628;2024-02-15T05:11:46;5.93;;;3.63;;
1258;SDS011;619;51.472;6.628;2024-02-15T05:14:15;4.93;;;3.20;;
1258;SDS011;619;51.472;6.628;2024-02-15T05:16:44;4.13;;;3.00;;
1258;SDS011;619;51.472;6.628;2024-02-15T05:19:12;3.20;;;2.20;;
1258;SDS011;619;51.472;6.628;2024-02-15T05:21:44;7.73;;;2.80;;
1258;SDS011;619;51.472;6.628;2024-02-15T05:24:13;5.20;;;2.67;;
1258;SDS011;619;51.472;6.628;2024-02-15T05:26:40;4.27;;;2.43;;
1258;SDS011;619;51.472;6.628;2024-02-15T05:29:07;4.80;;;2.53;;
1258;SDS011;619;51.472;6.628;2024-02-15T05:31:37;2.93;;;2.30;;
1258;SDS011;619;51.472;6.628;2024-02-15T05:34:09;2.73;;;2.10;;
1258;SDS011;619;51.472;6.628;2024-02-15T05:36:36;5.00;;;1.80;;
1258;SDS011;619;51.472;6.628;2024-02-15T05:39:04;4.03;;;2.27;;
1258;SDS011;619;51.472;6.628;2024-02-15T05:41:31;2.57;;;1.93;;
1258;SDS011;619;51.472;6.628;2024-02-15T05:43:59;5.30;;;2.40;;
1258;SDS011;619;51.472;6.628;2024-02-15T05:46:28;2.47;;;1.97;;
1258;SDS011;619;51.472;6.628;2024-02-15T05:48:54;3.73;;;1.90;;
1258;SDS011;619;51.472;6.628;2024-02-15T05:51:24;2.50;;;1.43;;
1258;SDS011;619;51.472;6.628;2024-02-15T05:53:52;4.33;;;2.10;;
1258;SDS011;619;51.472;6.628;2024-02-15T05:56:23;4.63;;;3.73;;
1258;SDS011;619;51.472;6.628;2024-02-15T05:58:53;7.03;;;2.50;;
1258;SDS011;619;51.472;6.628;2024-02-15T06:01:24;2.27;;;1.80;;
1258;SDS011;619;51.472;6.628;2024-02-15T06:03:50;2.03;;;1.80;;
1258;SDS011;619;51.472;6.628;2024-02-15T06:06:19;3.00;;;2.07;;
1258;SDS011;619;51.472;6.628;2024-02-15T06:08:46;2.57;;;1.70;;
1258;SDS011;619;51.472;6.628;2024-02-15T06:11:18;2.50;;;1.77;;
1258;SDS011;619;51.472;6.628;2024-02-15T06:13:45;4.00;;;1.80;;
1258;SDS011;619;51.472;6.628;2024-02-15T06:16:11;2.47;;;1.90;;
1258;SDS011;619;51.472;6.628;2024-02-15T06:18:37;4.60;;;2.70;;
1258;SDS011;619;51.472;6.628;2024-02-15T06:21:04;4.43;;;2.70;;
1258;SDS011;619;51.472;6.628;2024-02-15T06:23:30;2.83;;;2.23;;
1258;SDS011;619;51.472;6.628;2024-02-15T06:26:01;3.70;;;2.03;;
1258;SDS011;619;51.472;6.628;2024-02-15T06:28:27;5.53;;;2.27;;
1258;SDS011;619;51.472;6.628;2024-02-15T06:31:13;2.90;;;2.17;;
1258;SDS011;619;51.472;6.628;2024-02-15T06:33:57;5.50;;;2.13;;
1258;SDS011;619;51.472;6.628;2024-02-15T06:36:55;3.90;;;2.20;;
1258;SDS011;619;51.472;6.628;2024-02-15T06:39:39;4.70;;;2.67;;
1258;SDS011;619;51.472;6.628;2024-02-15T06:42:10;3.43;;;2.70;;
1258;SDS011;619;51.472;6.628;2024-02-15T06:44:44;4.27;;;2.07;;
1258;SDS011;619;51.472;6.628;2024-02-15T06:47:13;3.50;;;2.80;;
1258;SDS011;619;51.472;6.628;2024-02-15T06:49:43;2.77;;;2.10;;
1258;SDS011;619;51.472;6.628;2024-02-15T06:52:11;3.70;;;2.23;;
1258;SDS011;619;51.472;6.628;2024-02-15T06:54:38;3.47;;;2.50;;
1258;SDS011;619;51.472;6.628;2024-02-15T06:57:08;5.40;;;2.30;;
1258;SDS011;619;51.472;6.628;2024-02-15T06:59:36;4.03;;;2.43;;
1258;SDS011;619;51.472;6.628;2024-02-15T07:02:05;2.23;;;1.97;;
1258;SDS011;619;51.472;6.628;2024-02-15T07:04:32;6.97;;;5.03;;
1258;SDS011;619;51.472;6.628;2024-02-15T07:06:58;4.53;;;3.10;;
1258;SDS011;619;51.472;6.628;2024-02-15T07:09:24;5.03;;;3.20;;
1258;SDS011;619;51.472;6.628;2024-02-15T07:11:53;3.70;;;3.30;;
1258;SDS011;619;51.472;6.628;2024-02-15T07:14:19;6.73;;;4.00;;
1258;SDS011;619;51.472;6.628;2024-02-15T07:16:45;5.77;;;4.40;;
1258;SDS011;619;51.472;6.628;2024-02-15T07:19:12;8.43;;;4.60;;
1258;SDS011;619;51.472;6.628;2024-02-15T07:21:43;6.20;;;4.30;;
1258;SDS011;619;51.472;6.628;2024-02-15T07:24:11;5.73;;;3.87;;
1258;SDS011;619;51.472;6.628;2024-02-15T07:26:39;5.80;;;4.27;;
1258;SDS011;619;51.472;6.628;2024-02-15T07:29:07;9.67;;;5.20;;
1258;SDS011;619;51.472;6.628;2024-02-15T07:31:33;5.60;;;5.00;;
1258;SDS011;619;51.472;6.628;2024-02-15T07:34:01;6.63;;;4.93;;
1258;SDS011;619;51.472;6.628;2024-02-15T07:36:28;5.37;;;4.17;;
1258;SDS011;619;51.472;6.628;2024-02-15T07:38:57;5.43;;;3.83;;
1258;SDS011;619;51.472;6.628;2024-02-15T07:41:28;4.40;;;3.40;;
1258;SDS011;619;51.472;6.628;2024-02-15T07:43:53;8.10;;;3.40;;
1258;SDS011;619;51.472;6.628;2024-02-15T07:46:20;5.00;;;2.13;;
1258;SDS011;619;51.472;6.628;2024-02-15T07:48:46;4.90;;;2.57;;
1258;SDS011;619;51.472;6.628;2024-02-15T07:51:14;5.50;;;2.40;;
1258;SDS011;619;51.472;6.628;2024-02-15T07:53:44;2.20;;;1.87;;
1258;SDS011;619;51.472;6.628;2024-02-15T07:56:12;3.17;;;2.03;;
1258;SDS011;619;51.472;6.628;2024-02-15T07:58:43;4.33;;;2.27;;
1258;SDS011;619;51.472;6.628;2024-02-15T08:01:14;2.73;;;2.03;;
1258;SDS011;619;51.472;6.628;2024-02-15T08:03:41;4.60;;;2.47;;
1258;SDS011;619;51.472;6.628;2024-02-15T08:06:13;4.53;;;2.60;;
1258;SDS011;619;51.472;6.628;2024-02-15T08:08:41;3.13;;;2.83;;
1258;SDS011;619;51.472;6.628;2024-02-15T08:11:08;3.23;;;2.07;;
1258;SDS011;619;51.472;6.628;2024-02-15T08:16:19;8.33;;;2.40;;
1258;SDS011;619;51.472;6.628;2024-02-15T08:18:52;2.70;;;2.10;;
1258;SDS011;619;51.472;6.628;2024-02-15T08:23:57;4.67;;;2.47;;
1258;SDS011;619;51.472;6.628;2024-02-15T08:26:33;4.90;;;1.83;;
1258;SDS011;619;51.472;6.628;2024-02-15T08:29:03;3.83;;;2.50;;
1258;SDS011;619;51.472;6.628;2024-02-15T08:31:31;2.73;;;2.43;;
1258;SDS011;619;51.472;6.628;2024-02-15T08:34:03;4.27;;;2.80;;
1258;SDS011;619;51.472;6.628;2024-02-15T08:36:31;4.50;;;2.60;;
1258;SDS011;619;51.472;6.628;2024-02-15T08:38:56;5.07;;;3.47;;
1258;SDS011;619;51.472;6.628;2024-02-15T08:41:22;6.73;;;3.50;;
1258;SDS011;619;51.472;6.628;2024-02-15T08:43:51;9.60;;;4.67;;
1258;SDS011;619;51.472;6.628;2024-02-15T08:46:18;10.03;;;5.10;;
1258;SDS011;619;51.472;6.628;2024-02-15T08:48:44;8.10;;;6.10;;
1258;SDS011;619;51.472;6.628;2024-02-15T08:51:11;10.00;;;6.40;;
1258;SDS011;619;51.472;6.628;2024-02-15T08:53:37;9.87;;;5.53;;
1258;SDS011;619;51.472;6.628;2024-02-15T08:56:03;5.13;;;4.07;;
1258;SDS011;619;51.472;6.628;2024-02-15T08:58:29;8.07;;;3.60;;
1258;SDS011;619;51.472;6.628;2024-02-15T09:00:56;5.83;;;3.57;;
1258;SDS011;619;51.472;6.628;2024-02-15T09:03:22;3.40;;;2.53;;
1258;SDS011;619;51.472;6.628;2024-02-15T09:05:48;7.17;;;2.60;;
1258;SDS011;619;51.472;6.628;2024-02-15T09:08:15;5.73;;;3.10;;
1258;SDS011;619;51.472;6.628;2024-02-15T09:10:47;4.73;;;3.53;;
1258;SDS011;619;51.472;6.628;2024-02-15T09:13:16;5.97;;;2.93;;
1258;SDS011;619;51.472;6.628;2024-02-15T09:15:42;8.10;;;3.00;;
1258;SDS011;619;51.472;6.628;2024-02-15T09:18:08;6.93;;;5.07;;
1258;SDS011;619;51.472;6.628;2024-02-15T09:20:36;6.73;;;4.47;;
1258;SDS011;619;51.472;6.628;2024-02-15T09:23:03;5.70;;;3.73;;
1258;SDS011;619;51.472;6.628;2024-02-15T09:25:34;5.07;;;2.50;;
1258;SDS011;619;51.472;6.628;2024-02-15T09:28:05;5.40;;;3.00;;
1258;SDS011;619;51.472;6.628;2024-02-15T09:30:33;4.67;;;2.70;;
1258;SDS011;619;51.472;6.628;2024-02-15T09:33:00;5.77;;;2.33;;
1258;SDS011;619;51.472;6.628;2024-02-15T09:35:29;2.63;;;2.03;;
1258;SDS011;619;51.472;6.628;2024-02-15T09:37:58;3.50;;;2.80;;
1258;SDS011;619;51.472;6.628;2024-02-15T09:40:26;2.60;;;2.23;;
1258;SDS011;619;51.472;6.628;2024-02-15T09:42:56;6.80;;;2.77;;
1258;SDS011;619;51.472;6.628;2024-02-15T09:45:25;4.47;;;2.87;;
1258;SDS011;619;51.472;6.628;2024-02-15T09:47:50;4.13;;;2.83;;
1258;SDS011;619;51.472;6.628;2024-02-15T09:50:18;4.07;;;2.80;;
1258;SDS011;619;51.472;6.628;2024-02-15T09:52:44;4.70;;;3.40;;
1258;SDS011;619;51.472;6.628;2024-02-15T09:55:10;3.00;;;2.70;;
1258;SDS011;619;51.472;6.628;2024-02-15T09:57:40;4.87;;;2.93;;
1258;SDS011;619;51.472;6.628;2024-02-15T10:00:07;2.83;;;2.50;;
1258;SDS011;619;51.472;6.628;2024-02-15T10:02:36;6.57;;;2.90;;
1258;SDS011;619;51.472;6.628;2024-02-15T10:05:07;3.83;;;3.23;;
1258;SDS011;619;51.472;6.628;2024-02-15T10:07:42;4.50;;;3.00;;
1258;SDS011;619;51.472;6.628;2024-02-15T10:10:22;3.80;;;2.40;;
1258;SDS011;619;51.472;6.628;2024-02-15T10:12:52;3.73;;;3.10;;
1258;SDS011;619;51.472;6.628;2024-02-15T10:15:28;5.40;;;3.53;;
1258;SDS011;619;51.472;6.628;2024-02-15T10:17:56;7.57;;;5.57;;
1258;SDS011;619;51.472;6.628;2024-02-15T10:20:23;9.73;;;4.23;;
1258;SDS011;619;51.472;6.628;2024-02-15T10:22:51;5.97;;;3.63;;
1258;SDS011;619;51.472;6.628;2024-02-15T10:25:28;3.63;;;3.33;;
1258;SDS011;619;51.472;6.628;2024-02-15T10:28:14;6.87;;;3.97;;
1258;SDS011;619;51.472;6.628;2024-02-15T10:30:48;9.40;;;4.23;;
1258;SDS011;619;51.472;6.628;2024-02-15T10:33:18;7.33;;;3.50;;
1258;SDS011;619;51.472;6.628;2024-02-15T10:35:48;5.13;;;3.73;;
1258;SDS011;619;51.472;6.628;2024-02-15T10:38:29;6.27;;;4.23;;
1258;SDS011;619;51.472;6.628;2024-02-15T10:40:56;8.50;;;3.83;;
1258;SDS011;619;51.472;6.628;2024-02-15T10:43:30;8.20;;;4.47;;
1258;SDS011;619;51.472;6.628;2024-02-15T10:45:56;7.00;;;3.70;;
1258;SDS011;619;51.472;6.628;2024-02-15T10:48:22;7.17;;;4.73;;
1258;SDS011;619;51.472;6.628;2024-02-15T10:50:50;6.60;;;4.90;;
1258;SDS011;619;51.472;6.628;2024-02-15T10:53:27;6.77;;;4.10;;
1258;SDS011;619;51.472;6.628;2024-02-15T10:56:07;5.97;;;3.93;;
1258;SDS011;619;51.472;6.628;2024-02-15T10:58:55;6.83;;;4.47;;
1258;SDS011;619;51.472;6.628;2024-02-15T11:01:29;6.60;;;4.47;;
1258;SDS011;619;51.472;6.628;2024-02-15T11:04:06;9.43;;;4.30;;
1258;SDS011;619;51.472;6.628;2024-02-15T11:06:33;7.20;;;4.10;;
1258;SDS011;619;51.472;6.628;2024-02-15T11:09:06;5.30;;;4.13;;
1258;SDS011;619;51.472;6.628;2024-02-15T11:11:33;7.40;;;3.77;;
1258;SDS011;619;51.472;6.628;2024-02-15T11:16:48;8.93;;;4.20;;
1258;SDS011;619;51.472;6.628;2024-02-15T11:22:10;7.43;;;4.53;;
1258;SDS011;619;51.472;6.628;2024-02-15T11:24:49;10.47;;;4.47;;
1258;SDS011;619;51.472;6.628;2024-02-15T11:27:26;4.60;;;3.30;;
1258;SDS011;619;51.472;6.628;2024-02-15T11:29:56;12.30;;;4.87;;
1258;SDS011;619;51.472;6.628;2024-02-15T11:35:09;5.77;;;3.30;;
1258;SDS011;619;51.472;6.628;2024-02-15T11:43:08;6.17;;;3.40;;
1258;SDS011;619;51.472;6.628;2024-02-15T11:45:36;6.20;;;3.47;;
1258;SDS011;619;51.472;6.628;2024-02-15T11:48:13;4.83;;;4.17;;
1258;SDS011;619;51.472;6.628;2024-02-15T11:50:41;4.87;;;3.40;;
1258;SDS011;619;51.472;6.628;2024-02-15T11:53:07;8.90;;;3.70;;
1258;SDS011;619;51.472;6.628;2024-02-15T11:55:36;5.20;;;3.50;;
1258;SDS011;619;51.472;6.628;2024-02-15T11:58:05;6.00;;;2.60;;
1258;SDS011;619;51.472;6.628;2024-02-15T12:00:37;6.00;;;3.60;;
1258;SDS011;619;51.472;6.628;2024-02-15T12:03:25;5.87;;;3.50;;
1258;SDS011;619;51.472;6.628;2024-02-15T12:06:09;5.03;;;2.87;;
1258;SDS011;619;51.472;6.628;2024-02-15T12:09:02;5.87;;;3.90;;
1258;SDS011;619;51.472;6.628;2024-02-15T12:11:47;3.50;;;2.27;;
1258;SDS011;619;51.472;6.628;2024-02-15T12:14:40;7.17;;;2.80;;
1258;SDS011;619;51.472;6.628;2024-02-15T12:17:27;5.90;;;2.80;;
1258;SDS011;619;51.472;6.628;2024-02-15T12:20:11;5.63;;;4.70;;
1258;SDS011;619;51.472;6.628;2024-02-15T12:25:13;6.77;;;2.80;;
1258;SDS011;619;51.472;6.628;2024-02-15T12:27:52;3.13;;;1.83;;
1258;SDS011;619;51.472;6.628;2024-02-15T12:30:18;3.63;;;2.20;;
1258;SDS011;619;51.472;6.628;2024-02-15T12:32:50;5.00;;;2.10;;
1258;SDS011;619;51.472;6.628;2024-02-15T12:35:23;2.83;;;2.33;;
1258;SDS011;619;51.472;6.628;2024-02-15T12:40:31;3.73;;;2.50;;
1258;SDS011;619;51.472;6.628;2024-02-15T12:42:58;3.13;;;1.60;;
1258;SDS011;619;51.472;6.628;2024-02-15T12:45:30;2.73;;;1.67;;
1258;SDS011;619;51.472;6.628;2024-02-15T12:47:56;2.43;;;2.23;;
1258;SDS011;619;51.472;6.628;2024-02-15T12:50:31;2.43;;;1.70;;
1258;SDS011;619;51.472;6.628;2024-02-15T12:52:58;3.40;;;1.63;;
1258;SDS011;619;51.472;6.628;2024-02-15T12:57:59;4.63;;;1.50;;
1258;SDS011;619;51.472;6.628;2024-02-15T13:00:30;6.03;;;2.00;;
1258;SDS011;619;51.472;6.628;2024-02-15T13:02:58;2.27;;;1.77;;
1258;SDS011;619;51.472;6.628;2024-02-15T13:05:28;3.43;;;1.63;;
1258;SDS011;619;51.472;6.628;2024-02-15T13:07:55;1.50;;;1.40;;
1258;SDS011;619;51.472;6.628;2024-02-15T13:10:21;3.10;;;1.90;;
1258;SDS011;619;51.472;6.628;2024-02-15T13:12:47;4.93;;;2.10;;
1258;SDS011;619;51.472;6.628;2024-02-15T13:15:13;3.10;;;1.73;;
1258;SDS011;619;51.472;6.628;2024-02-15T13:17:42;3.70;;;2.10;;
1258;SDS011;619;51.472;6.628;2024-02-15T13:20:10;4.47;;;1.93;;
1258;SDS011;619;51.472;6.628;2024-02-15T13:22:41;4.40;;;2.80;;
1258;SDS011;619;51.472;6.628;2024-02-15T13:25:11;6.80;;;2.90;;
1258;SDS011;619;51.472;6.628;2024-02-15T13:27:36;5.90;;;2.53;;
1258;SDS011;619;51.472;6.628;2024-02-15T13:30:08;4.37;;;2.70;;
1258;SDS011;619;51.472;6.628;2024-02-15T13:32:38;2.70;;;2.20;;
1258;SDS011;619;51.472;6.628;2024-02-15T13:35:06;2.70;;;2.30;;
1258;SDS011;619;51.472;6.628;2024-02-15T13:37:47;5.80;;;3.30;;
1258;SDS011;619;51.472;6.628;2024-02-15T13:40:13;3.97;;;3.00;;
1258;SDS011;619;51.472;6.628;2024-02-15T13:42:42;10.53;;;2.60;;
1258;SDS011;619;51.472;6.628;2024-02-15T13:45:14;8.00;;;2.90;;
1258;SDS011;619;51.472;6.628;2024-02-15T13:47:41;3.30;;;2.23;;
1258;SDS011;619;51.472;6.628;2024-02-15T13:50:11;8.50;;;2.60;;
1258;SDS011;619;51.472;6.628;2024-02-15T13:52:39;4.97;;;2.00;;
1258;SDS011;619;51.472;6.628;2024-02-15T13:55:08;4.20;;;2.33;;
1258;SDS011;619;51.472;6.628;2024-02-15T13:57:40;7.00;;;4.20;;
1258;SDS011;619;51.472;6.628;2024-02-15T14:00:13;3.67;;;2.47;;
1258;SDS011;619;51.472;6.628;2024-02-15T14:02:52;6.17;;;3.40;;
1258;SDS011;619;51.472;6.628;2024-02-15T14:05:23;4.77;;;2.70;;
1258;SDS011;619;51.472;6.628;2024-02-15T14:07:51;2.47;;;2.20;;
1258;SDS011;619;51.472;6.628;2024-02-15T14:10:20;4.43;;;2.40;;
1258;SDS011;619;51.472;6.628;2024-02-15T14:12:49;3.10;;;2.07;;
1258;SDS011;619;51.472;6.628;2024-02-15T14:15:33;2.40;;;2.10;;
1258;SDS011;619;51.472;6.628;2024-02-15T14:20:37;3.50;;;2.10;;
1258;SDS011;619;51.472;6.628;2024-02-15T14:23:03;1.90;;;1.43;;
1258;SDS011;619;51.472;6.628;2024-02-15T14:25:31;2.13;;;1.53;;
1258;SDS011;619;51.472;6.628;2024-02-15T14:28:02;4.93;;;1.90;;
1258;SDS011;619;51.472;6.628;2024-02-15T14:30:33;4.23;;;1.93;;
1258;SDS011;619;51.472;6.628;2024-02-15T14:33:17;6.40;;;2.17;;
1258;SDS011;619;51.472;6.628;2024-02-15T14:35:47;2.73;;;1.63;;
1258;SDS011;619;51.472;6.628;2024-02-15T14:38:18;4.17;;;1.50;;
1258;SDS011;619;51.472;6.628;2024-02-15T14:40:46;2.90;;;1.60;;
1258;SDS011;619;51.472;6.628;2024-02-15T14:43:18;3.67;;;2.07;;
1258;SDS011;619;51.472;6.628;2024-02-15T14:45:47;4.13;;;1.77;;
1258;SDS011;619;51.472;6.628;2024-02-15T14:48:13;1.70;;;1.53;;
1258;SDS011;619;51.472;6.628;2024-02-15T14:50:42;5.07;;;1.70;;
1258;SDS011;619;51.472;6.628;2024-02-15T14:53:11;1.90;;;1.30;;
1258;SDS011;619;51.472;6.628;2024-02-15T14:55:38;3.23;;;2.40;;
1258;SDS011;619;51.472;6.628;2024-02-15T14:58:09;1.50;;;1.33;;
1258;SDS011;619;51.472;6.628;2024-02-15T15:00:36;4.90;;;1.93;;
1258;SDS011;619;51.472;6.628;2024-02-15T15:03:02;1.53;;;1.10;;
1258;SDS011;619;51.472;6.628;2024-02-15T15:05:28;3.00;;;1.67;;
1258;SDS011;619;51.472;6.628;2024-02-15T15:08:12;3.20;;;1.27;;
1258;SDS011;619;51.472;6.628;2024-02-15T15:10:56;2.07;;;1.67;;
1258;SDS011;619;51.472;6.628;2024-02-15T15:13:40;2.20;;;1.40;;
1258;SDS011;619;51.472;6.628;2024-02-15T15:16:06;1.87;;;1.47;;
1258;SDS011;619;51.472;6.628;2024-02-15T15:18:32;1.50;;;1.40;;
1258;SDS011;619;51.472;6.628;2024-02-15T15:21:01;4.03;;;1.80;;
1258;SDS011;619;51.472;6.628;2024-02-15T15:23:30;2.97;;;1.57;;
1258;SDS011;619;51.472;6.628;2024-02-15T15:25:59;2.60;;;1.53;;
1258;SDS011;619;51.472;6.628;2024-02-15T15:28:26;2.43;;;1.83;;
1258;SDS011;619;51.472;6.628;2024-02-15T15:30:56;2.30;;;1.43;;
1258;SDS011;619;51.472;6.628;2024-02-15T15:33:24;1.70;;;1.30;;
1258;SDS011;619;51.472;6.628;2024-02-15T15:35:50;3.23;;;1.80;;
1258;SDS011;619;51.472;6.628;2024-02-15T15:38:16;3.30;;;1.57;;
1258;SDS011;619;51.472;6.628;2024-02-15T15:40:44;3.07;;;2.77;;
1258;SDS011;619;51.472;6.628;2024-02-15T15:43:10;2.43;;;1.43;;
1258;SDS011;619;51.472;6.628;2024-02-15T15:45:38;3.03;;;1.60;;
1258;SDS011;619;51.472;6.628;2024-02-15T15:48:05;1.83;;;1.40;;
1258;SDS011;619;51.472;6.628;2024-02-15T15:50:31;4.23;;;2.30;;
1258;SDS011;619;51.472;6.628;2024-02-15T15:53:03;3.40;;;2.60;;
1258;SDS011;619;51.472;6.628;2024-02-15T15:55:29;5.63;;;2.80;;
1258;SDS011;619;51.472;6.628;2024-02-15T15:57:58;3.10;;;2.03;;
1258;SDS011;619;51.472;6.628;2024-02-15T16:00:23;10.23;;;2.37;;
1258;SDS011;619;51.472;6.628;2024-02-15T16:02:54;3.50;;;2.20;;
1258;SDS011;619;51.472;6.628;2024-02-15T16:05:24;4.03;;;2.63;;
1258;SDS011;619;51.472;6.628;2024-02-15T16:07:52;1.80;;;1.50;;
1258;SDS011;619;51.472;6.628;2024-02-15T16:10:18;3.10;;;2.10;;
1258;SDS011;619;51.472;6.628;2024-02-15T16:12:47;3.67;;;1.43;;